Time;durP1;ratioP1;P1;durP2;ratioP2;P2;SDS_P1;SDS_P2;PMS_P1;PMS_P2;Temp;Humidity;BMP_temperature;BMP_pressure;BME280_temperature;BME280_humidity;BME280_pressure;Samples;Min_cycle;Max_cycle;Signal;HPM_P1;HPM_P2
2023/09/11 00:01:09;;;;;;;8.18;5.72;;;;;;;17.30;100.00;100494.81;5590018;31;34562;-67
2023/09/11 00:04:15;;;;;;;13.23;5.50;;;;;;;17.25;100.00;100499.97;5590545;31;34380;-67
2023/09/11 00:07:17;;;;;;;11.07;5.53;;;;;;;17.21;100.00;100495.25;5590503;31;33858;-67
2023/09/11 00:10:20;;;;;;;9.63;5.40;;;;;;;17.17;100.00;100492.16;5590729;31;34653;-67
2023/09/11 00:13:23;;;;;;;10.55;5.62;;;;;;;17.12;100.00;100494.66;5590549;31;34042;-67
2023/09/11 00:16:27;;;;;;;9.20;5.57;;;;;;;17.06;100.00;100491.97;5590331;31;33890;-67
2023/09/11 00:19:29;;;;;;;6.97;5.65;;;;;;;16.99;100.00;100481.25;5590330;31;33821;-67
2023/09/11 00:22:32;;;;;;;9.70;5.68;;;;;;;16.95;100.00;100496.91;5590309;31;33799;-67
2023/09/11 00:25:36;;;;;;;8.60;5.95;;;;;;;16.86;100.00;100500.81;5590284;31;34785;-67
2023/09/11 00:28:38;;;;;;;10.25;6.18;;;;;;;16.81;100.00;100486.38;5590438;31;34656;-67
2023/09/11 00:31:42;;;;;;;11.68;6.10;;;;;;;16.78;100.00;100490.31;5590284;31;34022;-67
2023/09/11 00:34:45;;;;;;;7.95;5.80;;;;;;;16.77;100.00;100477.94;5590257;31;33940;-67
2023/09/11 00:37:47;;;;;;;10.60;6.30;;;;;;;16.76;100.00;100478.97;5589937;31;34075;-67
2023/09/11 00:40:52;;;;;;;11.18;6.65;;;;;;;16.78;100.00;100486.81;5590166;31;33946;-67
2023/09/11 00:43:55;;;;;;;12.90;6.50;;;;;;;16.79;100.00;100477.75;5589941;31;34112;-67
2023/09/11 00:46:58;;;;;;;11.65;6.72;;;;;;;16.76;100.00;100470.09;5589980;31;33926;-67
2023/09/11 00:50:01;;;;;;;13.13;6.97;;;;;;;16.72;100.00;100463.50;5589991;31;33835;-67
2023/09/11 00:53:06;;;;;;;12.02;6.78;;;;;;;16.69;100.00;100469.28;5589997;31;34499;-67
2023/09/11 00:56:10;;;;;;;10.25;6.22;;;;;;;16.65;100.00;100476.91;5590012;31;33827;-67
2023/09/11 00:59:14;;;;;;;11.25;6.97;;;;;;;16.64;100.00;100477.13;5589929;31;33963;-67
2023/09/11 01:02:18;;;;;;;9.80;6.95;;;;;;;16.64;100.00;100475.25;5590357;31;33943;-67
2023/09/11 01:05:22;;;;;;;11.23;6.68;;;;;;;16.60;100.00;100470.53;5589961;31;33999;-67
2023/09/11 01:08:25;;;;;;;12.43;6.80;;;;;;;16.57;100.00;100465.53;5589203;31;33772;-67
2023/09/11 01:11:28;;;;;;;12.30;6.72;;;;;;;16.56;100.00;100472.72;5590139;31;33953;-67
2023/09/11 01:14:33;;;;;;;13.10;6.97;;;;;;;16.57;100.00;100478.91;5589710;31;34168;-67
2023/09/11 01:17:59;;;;;;;9.90;6.60;;;;;;;16.52;100.00;100471.50;5589744;31;33814;-66
2023/09/11 01:21:08;;;;;;;15.93;6.70;;;;;;;16.51;100.00;100476.03;5589056;31;33842;-67
2023/09/11 01:24:26;;;;;;;9.87;6.70;;;;;;;16.51;100.00;100472.53;5589915;31;33921;-67
2023/09/11 01:27:51;;;;;;;14.27;6.80;;;;;;;16.55;100.00;100476.47;5589774;31;33881;-67
2023/09/11 01:30:54;;;;;;;9.07;6.57;;;;;;;16.56;100.00;100469.22;5589717;31;33894;-67
2023/09/11 01:34:05;;;;;;;10.07;6.20;;;;;;;16.45;100.00;100471.50;5589747;31;33949;-67
2023/09/11 01:37:08;;;;;;;11.00;6.30;;;;;;;16.41;100.00;100469.44;5589661;31;33800;-67
2023/09/11 01:40:11;;;;;;;10.23;6.30;;;;;;;16.37;100.00;100469.00;5589943;31;34728;-67
2023/09/11 01:43:15;;;;;;;10.05;6.20;;;;;;;16.43;100.00;100478.06;5589751;31;33789;-67
2023/09/11 01:46:18;;;;;;;13.80;6.50;;;;;;;16.35;100.00;100475.59;5588693;31;34160;-67
2023/09/11 01:49:25;;;;;;;10.55;6.65;;;;;;;16.35;100.00;100467.56;5588660;31;33794;-67
2023/09/11 01:52:29;;;;;;;13.02;6.80;;;;;;;16.58;100.00;100473.41;5589601;31;32519;-67
2023/09/11 01:55:34;;;;;;;10.90;7.05;;;;;;;16.59;100.00;100468.88;5589502;31;34457;-67
2023/09/11 01:58:36;;;;;;;8.77;6.32;;;;;;;16.52;100.00;100472.31;5589844;31;33771;-67
2023/09/11 02:01:39;;;;;;;12.13;7.05;;;;;;;16.57;100.00;100471.72;5589408;31;34584;-67
2023/09/11 02:04:42;;;;;;;9.82;6.85;;;;;;;16.70;100.00;100468.28;5588754;31;34734;-67
2023/09/11 02:07:45;;;;;;;10.95;6.95;;;;;;;16.75;100.00;100463.91;5589421;31;33905;-67
2023/09/11 02:10:48;;;;;;;10.60;6.75;;;;;;;16.73;100.00;100479.38;5589165;31;33930;-67
2023/09/11 02:13:51;;;;;;;9.02;6.85;;;;;;;16.71;100.00;100476.09;5589336;31;33873;-67
2023/09/11 02:16:54;;;;;;;8.10;6.47;;;;;;;16.65;100.00;100474.25;5589024;31;34331;-67
2023/09/11 02:19:57;;;;;;;8.70;6.37;;;;;;;16.52;100.00;100464.28;5589236;31;33789;-67
2023/09/11 02:23:00;;;;;;;12.15;7.37;;;;;;;16.47;100.00;100469.44;5589472;31;33990;-67
2023/09/11 02:26:03;;;;;;;10.10;6.72;;;;;;;16.38;100.00;100462.62;5589194;31;34604;-67
2023/09/11 02:29:05;;;;;;;10.55;7.12;;;;;;;16.30;100.00;100462.81;5589511;31;33829;-67
2023/09/11 02:32:08;;;;;;;9.65;6.90;;;;;;;16.24;100.00;100465.47;5588357;31;35301;-67
2023/09/11 02:35:11;;;;;;;10.45;7.03;;;;;;;16.12;100.00;100467.09;5589076;31;34481;-67
2023/09/11 02:38:15;;;;;;;9.85;7.20;;;;;;;16.07;100.00;100465.03;5588111;31;33925;-67
2023/09/11 02:41:17;;;;;;;12.07;7.18;;;;;;;16.10;100.00;100467.28;5588744;31;34504;-67
2023/09/11 02:44:20;;;;;;;10.40;7.00;;;;;;;16.03;100.00;100463.75;5589113;31;34423;-68
2023/09/11 02:47:23;;;;;;;9.00;6.80;;;;;;;15.97;100.00;100468.09;5588645;31;34750;-67
2023/09/11 02:50:26;;;;;;;8.57;6.97;;;;;;;15.90;100.00;100461.88;5588678;31;33974;-67
2023/09/11 02:53:29;;;;;;;11.02;7.18;;;;;;;15.86;100.00;100465.97;5588717;31;34457;-67
2023/09/11 02:56:34;;;;;;;11.15;7.50;;;;;;;15.87;100.00;100464.97;5588962;31;33815;-67
2023/09/11 02:59:38;;;;;;;9.35;7.00;;;;;;;15.83;100.00;100458.34;5589324;31;33889;-67
2023/09/11 03:02:41;;;;;;;9.73;7.07;;;;;;;15.82;100.00;100458.56;5591084;31;34452;-67
2023/09/11 03:05:43;;;;;;;10.98;6.82;;;;;;;15.76;100.00;100457.50;5591332;31;34606;-67
2023/09/11 03:08:47;;;;;;;12.02;6.68;;;;;;;15.71;100.00;100457.28;5591066;31;34530;-67
2023/09/11 03:11:50;;;;;;;9.90;6.65;;;;;;;15.69;100.00;100453.97;5591179;31;34070;-68
2023/09/11 03:14:53;;;;;;;8.50;6.82;;;;;;;15.67;100.00;100457.87;5590937;31;33764;-67
2023/09/11 03:17:56;;;;;;;9.80;6.70;;;;;;;15.63;100.00;100460.13;5590872;31;34078;-67
2023/09/11 03:21:00;;;;;;;13.20;6.93;;;;;;;15.63;100.00;100465.47;5590888;31;34493;-67
2023/09/11 03:24:03;;;;;;;7.60;6.47;;;;;;;15.70;100.00;100460.13;5590869;31;33842;-67
2023/09/11 03:27:07;;;;;;;10.70;6.80;;;;;;;15.64;100.00;100462.56;5590828;31;33862;-67
2023/09/11 03:30:10;;;;;;;10.40;7.07;;;;;;;15.60;100.00;100461.31;5590694;31;33670;-67
2023/09/11 03:33:13;;;;;;;9.88;6.72;;;;;;;15.60;100.00;100457.81;5590959;31;34796;-67
2023/09/11 03:36:17;;;;;;;10.60;6.85;;;;;;;15.50;100.00;100454.66;5590686;31;34577;-67
2023/09/11 03:39:20;;;;;;;15.35;7.78;;;;;;;15.51;100.00;100459.84;5590683;31;34596;-67
2023/09/11 03:42:23;;;;;;;10.68;7.35;;;;;;;15.49;100.00;100463.72;5590665;31;33875;-67
2023/09/11 03:45:26;;;;;;;13.57;7.12;;;;;;;15.45;100.00;100460.59;5590506;31;34460;-67
2023/09/11 03:48:29;;;;;;;13.20;7.37;;;;;;;15.41;100.00;100459.34;5590835;31;34704;-67
2023/09/11 03:51:33;;;;;;;11.40;7.40;;;;;;;15.39;100.00;100460.56;5590857;31;34124;-67
2023/09/11 03:54:36;;;;;;;12.43;7.53;;;;;;;15.36;100.00;100455.59;5590477;31;34539;-67
2023/09/11 03:57:39;;;;;;;15.80;7.47;;;;;;;15.37;100.00;100462.59;5590633;31;33882;-67
2023/09/11 04:00:42;;;;;;;11.52;7.25;;;;;;;15.38;100.00;100457.06;5590494;31;34940;-66
2023/09/11 04:03:46;;;;;;;11.10;7.53;;;;;;;15.43;100.00;100451.97;5590694;31;34067;-67
2023/09/11 04:06:49;;;;;;;13.57;7.20;;;;;;;15.38;100.00;100450.91;5590469;31;33913;-67
2023/09/11 04:09:51;;;;;;;12.65;7.40;;;;;;;15.33;100.00;100450.66;5589733;31;33147;-67
2023/09/11 04:12:54;;;;;;;16.55;7.43;;;;;;;15.28;100.00;100445.91;5589778;31;33806;-67
2023/09/11 04:15:57;;;;;;;15.07;7.55;;;;;;;15.26;100.00;100441.78;5590680;31;34845;-66
2023/09/11 04:19:00;;;;;;;14.85;7.85;;;;;;;15.27;100.00;100451.44;5590202;31;34182;-67
2023/09/11 04:22:04;;;;;;;10.68;7.05;;;;;;;15.24;100.00;100444.66;5590408;31;33869;-68
2023/09/11 04:25:07;;;;;;;12.57;7.80;;;;;;;15.28;100.00;100442.41;5589532;31;33792;-68
2023/09/11 04:28:10;;;;;;;21.20;8.25;;;;;;;15.35;100.00;100446.75;5590132;31;33807;-68
2023/09/11 04:31:13;;;;;;;11.52;7.70;;;;;;;15.30;100.00;100445.72;5590178;31;34661;-67
2023/09/11 04:34:17;;;;;;;13.77;7.53;;;;;;;15.29;100.00;100441.41;5590150;31;33805;-67
2023/09/11 04:37:20;;;;;;;15.82;7.87;;;;;;;15.26;100.00;100445.28;5590267;31;33962;-67
2023/09/11 04:40:23;;;;;;;10.60;7.62;;;;;;;15.27;100.00;100440.75;5590207;31;33725;-68
2023/09/11 04:43:26;;;;;;;12.73;7.40;;;;;;;15.41;100.00;100445.16;5589690;31;34862;-68
2023/09/11 04:46:29;;;;;;;11.85;8.15;;;;;;;15.39;100.00;100434.69;5589978;31;34518;-68
2023/09/11 04:49:33;;;;;;;10.25;7.60;;;;;;;15.42;100.00;100434.28;5590071;31;34101;-68
2023/09/11 04:52:36;;;;;;;14.38;8.00;;;;;;;15.46;100.00;100435.53;5589986;31;33743;-68
2023/09/11 04:55:39;;;;;;;16.90;7.70;;;;;;;15.53;100.00;100433.75;5588734;31;33945;-68
2023/09/11 04:58:42;;;;;;;21.25;7.70;;;;;;;15.62;100.00;100435.22;5589806;31;33814;-68
2023/09/11 05:01:45;;;;;;;12.95;7.95;;;;;;;15.72;100.00;100439.38;5589803;31;33830;-68
2023/09/11 05:04:49;;;;;;;15.07;7.97;;;;;;;15.84;100.00;100435.09;5576123;31;33834;-68
2023/09/11 05:07:52;;;;;;;12.95;8.30;;;;;;;15.93;100.00;100433.87;5589829;31;34051;-67
2023/09/11 05:10:55;;;;;;;19.55;7.80;;;;;;;16.03;100.00;100435.16;5589644;31;33868;-68
2023/09/11 05:13:58;;;;;;;13.90;7.28;;;;;;;16.18;100.00;100436.84;5589437;31;33900;-68
2023/09/11 05:17:01;;;;;;;12.35;7.20;;;;;;;16.37;100.00;100430.69;5589511;31;34468;-68
2023/09/11 05:20:06;;;;;;;14.35;7.47;;;;;;;16.38;100.00;100435.03;5589534;31;34033;-68
2023/09/11 05:23:09;;;;;;;19.33;7.55;;;;;;;16.48;100.00;100440.81;5588652;31;33887;-67
2023/09/11 05:26:12;;;;;;;17.05;7.37;;;;;;;16.53;100.00;100441.00;5589667;31;33848;-66
2023/09/11 05:29:16;;;;;;;18.65;7.78;;;;;;;16.64;100.00;100436.94;5589409;31;33928;-67
2023/09/11 05:32:20;;;;;;;17.98;8.65;;;;;;;16.69;100.00;100434.47;5589247;31;33771;-67
2023/09/11 05:35:23;;;;;;;15.63;7.50;;;;;;;16.76;100.00;100435.28;5588398;31;34574;-67
2023/09/11 05:38:26;;;;;;;16.87;7.75;;;;;;;16.87;100.00;100431.97;5589571;31;34961;-68
2023/09/11 05:41:29;;;;;;;18.17;7.15;;;;;;;16.95;100.00;100437.94;5589234;31;33874;-68
2023/09/11 05:44:32;;;;;;;11.02;7.30;;;;;;;17.05;100.00;100436.69;5588739;31;34045;-67
2023/09/11 05:47:36;;;;;;;18.25;7.07;;;;;;;17.11;100.00;100444.75;5588396;31;33799;-67
2023/09/11 05:50:39;;;;;;;16.87;7.53;;;;;;;17.29;100.00;100433.34;5575662;31;34147;-68
2023/09/11 05:53:43;;;;;;;15.75;6.80;;;;;;;17.38;100.00;100443.63;5588840;31;33960;-68
2023/09/11 05:56:46;;;;;;;22.50;7.72;;;;;;;17.57;100.00;100441.13;5588909;31;34369;-67
2023/09/11 05:59:49;;;;;;;26.83;7.80;;;;;;;17.69;100.00;100439.44;5588694;31;33917;-68
2023/09/11 06:02:52;;;;;;;12.20;7.07;;;;;;;17.85;100.00;100443.53;5588907;31;34125;-68
2023/09/11 06:05:56;;;;;;;24.20;7.55;;;;;;;17.94;100.00;100440.37;5588863;31;33900;-68
2023/09/11 06:08:59;;;;;;;10.43;7.30;;;;;;;18.06;100.00;100435.97;5588800;31;33830;-65
2023/09/11 06:12:03;;;;;;;18.30;7.35;;;;;;;18.10;100.00;100442.56;5587806;31;33837;-66
2023/09/11 06:15:06;;;;;;;12.70;7.10;;;;;;;18.23;100.00;100433.59;5588945;31;34578;-65
2023/09/11 06:18:09;;;;;;;12.27;7.15;;;;;;;18.25;100.00;100440.37;5588722;31;34633;-66
2023/09/11 06:21:12;;;;;;;22.98;7.55;;;;;;;18.47;100.00;100445.44;5588580;31;34874;-66
2023/09/11 06:24:16;;;;;;;14.70;6.75;;;;;;;18.62;100.00;100433.37;5588641;31;33722;-66
2023/09/11 06:27:19;;;;;;;16.83;6.80;;;;;;;18.84;100.00;100443.72;5588520;31;33966;-65
2023/09/11 06:30:21;;;;;;;14.40;6.45;;;;;;;19.37;100.00;100444.03;5587992;31;33550;-66
2023/09/11 06:33:29;;;;;;;19.25;6.85;;;;;;;20.13;100.00;100443.53;5588761;31;33997;-66
2023/09/11 06:36:32;;;;;;;14.60;6.07;;;;;;;20.86;100.00;100440.59;5586994;31;33864;-67
2023/09/11 06:39:35;;;;;;;18.42;5.53;;;;;;;21.57;100.00;100446.56;5588379;31;33847;-66
2023/09/11 06:42:38;;;;;;;12.13;5.80;;;;;;;21.92;100.00;100446.47;5588458;31;34049;-66
2023/09/11 06:45:41;;;;;;;14.90;5.85;;;;;;;22.21;100.00;100449.19;5588226;31;33833;-66
2023/09/11 06:48:44;;;;;;;15.45;5.50;;;;;;;22.45;100.00;100448.00;5588427;31;34465;-66
2023/09/11 06:51:48;;;;;;;14.45;5.28;;;;;;;22.73;100.00;100453.38;5588056;31;34142;-68
2023/09/11 06:54:51;;;;;;;13.23;5.45;;;;;;;22.99;100.00;100461.91;5588318;31;34464;-68
2023/09/11 06:57:59;;;;;;;11.63;5.28;;;;;;;23.45;96.55;100458.81;5587971;31;34604;-66
2023/09/11 07:01:02;;;;;;;12.88;5.68;;;;;;;24.15;89.63;100463.47;5587474;31;33770;-67
2023/09/11 07:04:10;;;;;;;10.52;5.22;;;;;;;24.36;87.69;100465.34;5588229;31;33808;-67
2023/09/11 07:07:13;;;;;;;20.70;5.35;;;;;;;25.08;81.31;100468.41;5587790;31;33816;-67
2023/09/11 07:10:19;;;;;;;12.65;5.30;;;;;;;25.65;75.44;100467.72;5588013;31;33833;-67
2023/09/11 07:13:42;;;;;;;14.93;5.40;;;;;;;25.81;70.51;100463.94;5587773;31;33777;-67
2023/09/11 07:16:44;;;;;;;9.02;4.65;;;;;;;27.04;64.55;100480.25;5587673;31;34453;-68
2023/09/11 07:19:47;;;;;;;13.15;4.75;;;;;;;27.20;61.42;100483.78;5587846;31;34569;-67
2023/09/11 07:22:50;;;;;;;10.38;5.55;;;;;;;26.46;63.83;100470.69;5587022;31;35031;-67
2023/09/11 07:25:56;;;;;;;16.20;5.47;;;;;;;25.56;67.64;100471.19;5586756;31;33772;-70
2023/09/11 07:29:04;;;;;;;10.98;5.03;;;;;;;26.78;63.46;100479.41;5586827;31;33816;-68
2023/09/11 07:32:08;;;;;;;16.98;5.60;;;;;;;26.02;65.58;100488.50;5586596;31;34041;-66
2023/09/11 07:35:11;;;;;;;10.25;5.32;;;;;;;25.59;68.80;100479.62;5587194;31;34012;-67
2023/09/11 07:38:14;;;;;;;10.38;5.40;;;;;;;26.17;67.21;100475.78;5587359;31;33855;-67
2023/09/11 07:41:18;;;;;;;14.07;5.00;;;;;;;26.81;64.00;100481.63;5587754;31;34526;-69
2023/09/11 07:44:21;;;;;;;10.88;4.90;;;;;;;27.22;61.33;100487.84;5587441;31;32202;-68
2023/09/11 07:47:24;;;;;;;13.75;5.47;;;;;;;28.46;54.94;100491.50;5588527;31;34656;-68
2023/09/11 07:50:28;;;;;;;14.05;5.10;;;;;;;30.59;49.13;100486.50;5589596;31;33896;-67
2023/09/11 07:53:31;;;;;;;10.30;5.12;;;;;;;30.51;47.98;100482.50;5590313;31;34338;-68
2023/09/11 07:56:36;;;;;;;12.35;4.90;;;;;;;32.33;43.36;100479.09;5589128;31;34431;-68
2023/09/11 07:59:39;;;;;;;9.77;4.72;;;;;;;32.69;42.56;100484.56;5589575;31;33828;-68
2023/09/11 08:02:43;;;;;;;13.73;5.65;;;;;;;32.75;42.14;100485.25;5590195;31;34101;-68
2023/09/11 08:05:46;;;;;;;19.77;4.97;;;;;;;32.51;41.21;100471.78;5589803;31;33886;-68
2023/09/11 08:08:48;;;;;;;18.15;5.82;;;;;;;32.71;42.03;100473.25;5589323;31;33990;-69
2023/09/11 08:11:51;;;;;;;13.43;5.18;;;;;;;33.73;40.39;100476.88;5589732;31;34045;-68
2023/09/11 08:14:56;;;;;;;17.90;5.37;;;;;;;32.66;42.06;100473.38;5589984;31;34513;-69
2023/09/11 08:17:59;;;;;;;12.27;5.37;;;;;;;32.92;39.95;100468.84;5589778;31;35299;-68
2023/09/11 08:21:01;;;;;;;17.60;5.50;;;;;;;33.89;39.53;100467.06;5589842;31;33906;-68
2023/09/11 08:24:04;;;;;;;15.10;5.35;;;;;;;35.03;37.29;100471.13;5590158;31;34126;-68
2023/09/11 08:27:07;;;;;;;12.95;5.25;;;;;;;35.30;36.47;100470.72;5588717;31;34842;-68
2023/09/11 08:30:11;;;;;;;24.27;5.30;;;;;;;35.92;35.07;100472.88;5589552;31;34660;-68
2023/09/11 08:33:14;;;;;;;13.05;4.82;;;;;;;35.16;36.58;100464.56;5589182;31;33990;-69
2023/09/11 08:36:17;;;;;;;21.48;4.72;;;;;;;35.88;35.82;100462.81;5588640;31;34539;-69
2023/09/11 08:39:20;;;;;;;12.93;4.75;;;;;;;36.92;33.31;100463.59;5589565;31;33932;-68
2023/09/11 08:42:23;;;;;;;12.93;4.68;;;;;;;37.20;31.98;100459.06;5589209;31;34600;-69
2023/09/11 08:45:26;;;;;;;19.12;5.00;;;;;;;35.68;34.27;100459.69;5589427;31;33528;-70
2023/09/11 08:48:32;;;;;;;22.05;5.25;;;;;;;37.31;31.69;100453.91;5589369;31;34950;-69
2023/09/11 08:51:46;;;;;;;16.30;4.97;;;;;;;37.53;31.60;100441.56;5589926;31;33779;-69
2023/09/11 08:54:55;;;;;;;12.37;4.60;;;;;;;38.04;29.64;100451.13;5589643;31;34750;-70
2023/09/11 08:58:04;;;;;;;18.40;5.18;;;;;;;34.51;34.06;100437.31;5589497;31;33879;-68
2023/09/11 09:01:08;;;;;;;17.73;4.93;;;;;;;32.99;38.62;100439.00;5589534;31;33839;-68
2023/09/11 09:04:13;;;;;;;15.75;4.93;;;;;;;31.32;40.93;100433.75;5589556;31;34623;-68
2023/09/11 09:07:17;;;;;;;21.10;5.05;;;;;;;30.73;42.20;100434.50;5589652;31;33976;-67
2023/09/11 09:10:21;;;;;;;13.60;5.12;;;;;;;30.05;42.10;100426.78;5589746;31;34640;-67
2023/09/11 09:13:24;;;;;;;20.75;5.57;;;;;;;28.77;46.06;100425.75;5589189;31;33996;-66
2023/09/11 09:16:27;;;;;;;15.15;5.47;;;;;;;28.56;48.05;100419.66;5589534;31;34018;-67
2023/09/11 09:19:31;;;;;;;17.95;5.22;;;;;;;28.16;49.83;100422.66;5588560;31;33825;-66
2023/09/11 09:22:35;;;;;;;36.88;6.00;;;;;;;28.24;48.93;100422.06;5589396;31;33939;-67
2023/09/11 09:25:39;;;;;;;16.23;5.20;;;;;;;28.16;48.80;100414.50;5589316;31;34297;-67
2023/09/11 09:28:43;;;;;;;17.65;5.47;;;;;;;27.81;49.16;100418.19;5588575;31;33866;-67
2023/09/11 09:31:47;;;;;;;19.17;5.90;;;;;;;27.89;49.28;100409.41;5589441;31;34576;-68
2023/09/11 09:34:54;;;;;;;12.57;4.95;;;;;;;27.65;51.34;100415.53;5589207;31;34521;-67
2023/09/11 09:37:59;;;;;;;16.40;5.65;;;;;;;27.61;51.33;100408.22;5589682;31;33882;-68
2023/09/11 09:41:12;;;;;;;11.65;4.78;;;;;;;27.76;50.04;100407.31;5588685;31;33982;-68
2023/09/11 09:44:34;;;;;;;14.73;4.72;;;;;;;27.76;50.32;100401.88;5589298;31;33906;-69
2023/09/11 09:47:37;;;;;;;14.18;4.65;;;;;;;27.88;46.65;100413.28;5589348;31;33797;-67
2023/09/11 09:50:58;;;;;;;10.75;4.45;;;;;;;27.91;45.75;100399.87;5589314;31;33910;-68
2023/09/11 09:54:03;;;;;;;11.15;4.45;;;;;;;27.74;47.71;100399.41;5589059;31;34687;-69
2023/09/11 09:57:09;;;;;;;11.48;4.97;;;;;;;27.81;46.92;100390.94;5589455;31;34034;-68
2023/09/11 10:00:16;;;;;;;16.83;4.90;;;;;;;27.97;45.85;100389.75;5589208;31;34083;-66
2023/09/11 10:03:20;;;;;;;16.25;4.93;;;;;;;27.91;48.42;100379.97;5589573;31;34567;-67
2023/09/11 10:06:30;;;;;;;17.37;5.20;;;;;;;27.98;50.42;100375.03;5589398;31;34017;-66
2023/09/11 10:09:37;;;;;;;13.27;4.30;;;;;;;27.97;45.83;100371.50;5588907;31;33911;-67
2023/09/11 10:12:42;;;;;;;10.18;4.10;;;;;;;28.08;45.26;100373.03;5588434;31;33877;-66
2023/09/11 10:15:45;;;;;;;5.78;3.80;;;;;;;28.20;44.74;100371.91;5588968;31;33805;-68
2023/09/11 10:18:48;;;;;;;15.75;4.30;;;;;;;28.21;43.20;100366.16;5589361;31;34972;-67
2023/09/11 10:21:51;;;;;;;9.88;4.40;;;;;;;28.30;43.06;100361.72;5588962;31;33830;-67
2023/09/11 10:24:54;;;;;;;11.80;4.37;;;;;;;28.55;43.65;100357.16;5588472;31;34543;-67
2023/09/11 10:28:06;;;;;;;21.80;4.55;;;;;;;28.68;42.82;100351.00;5588687;31;34020;-67
2023/09/11 10:31:25;;;;;;;10.80;3.78;;;;;;;28.69;45.13;100349.91;5588206;31;33898;-65
2023/09/11 10:34:28;;;;;;;13.00;4.10;;;;;;;28.88;41.83;100346.19;5588742;31;33756;-66
2023/09/11 10:37:35;;;;;;;14.60;4.32;;;;;;;28.95;41.09;100333.00;5588549;31;33791;-66
2023/09/11 10:40:39;;;;;;;5.97;3.60;;;;;;;28.87;41.34;100328.19;5588445;31;34483;-65
2023/09/11 10:43:45;;;;;;;7.85;3.60;;;;;;;29.06;42.59;100324.69;5588366;31;33818;-67
2023/09/11 10:46:50;;;;;;;12.52;4.10;;;;;;;29.12;40.79;100327.06;5588525;31;33867;-67
2023/09/11 10:49:56;;;;;;;10.43;4.25;;;;;;;29.37;40.63;100315.84;5587917;31;34500;-66
2023/09/11 10:53:00;;;;;;;16.62;4.10;;;;;;;31.53;37.62;100327.97;5587738;31;34411;-70
2023/09/11 10:56:03;;;;;;;11.95;4.35;;;;;;;33.27;35.01;100326.91;5588723;31;34590;-68
2023/09/11 10:59:07;;;;;;;8.90;4.68;;;;;;;36.14;30.97;100337.25;5588286;31;34747;-68
2023/09/11 11:02:10;;;;;;;17.20;4.25;;;;;;;36.97;28.81;100331.44;5588718;31;33818;-69
2023/09/11 11:05:16;;;;;;;10.55;4.10;;;;;;;37.01;28.95;100332.37;5587237;31;33900;-68
2023/09/11 11:08:19;;;;;;;11.98;3.95;;;;;;;39.91;25.95;100333.13;5588407;31;34116;-68
2023/09/11 11:11:29;;;;;;;9.30;3.97;;;;;;;38.80;26.28;100333.66;5588281;31;34015;-69
2023/09/11 11:14:33;;;;;;;13.20;4.10;;;;;;;40.88;24.11;100336.53;5588182;31;33961;-69
2023/09/11 11:17:37;;;;;;;21.27;4.45;;;;;;;42.87;22.21;100333.16;5588329;31;34494;-68
2023/09/11 11:20:59;;;;;;;12.48;3.60;;;;;;;41.65;23.59;100329.41;5587957;31;33999;-69
2023/09/11 11:24:09;;;;;;;20.95;3.83;;;;;;;42.90;21.43;100325.97;5590310;31;34134;-68
2023/09/11 11:27:12;;;;;;;14.05;4.00;;;;;;;40.86;22.94;100327.78;5591042;31;34566;-69
2023/09/11 11:30:15;;;;;;;9.50;4.05;;;;;;;40.47;23.57;100322.31;5590648;31;34119;-69
2023/09/11 11:33:22;;;;;;;10.10;3.85;;;;;;;39.54;24.87;100316.03;5590494;31;34493;-69
2023/09/11 11:36:27;;;;;;;11.65;3.90;;;;;;;41.23;22.95;100303.72;5589838;31;34848;-68
2023/09/11 11:39:34;;;;;;;12.75;3.45;;;;;;;43.36;20.23;100319.94;5590356;31;34574;-69
2023/09/11 11:42:37;;;;;;;11.30;3.85;;;;;;;44.00;19.58;100316.28;5590396;31;34138;-69
2023/09/11 11:45:46;;;;;;;11.70;3.33;;;;;;;42.71;20.96;100310.28;5590279;31;33813;-69
2023/09/11 11:48:50;;;;;;;10.70;3.55;;;;;;;43.70;20.21;100298.97;5590409;31;33922;-69
2023/09/11 11:51:53;;;;;;;10.63;3.75;;;;;;;45.98;18.29;100298.53;5589657;31;34965;-69
2023/09/11 11:54:56;;;;;;;12.75;3.75;;;;;;;47.97;16.85;100297.44;5589576;31;34618;-69
2023/09/11 11:57:58;;;;;;;15.38;3.83;;;;;;;45.28;19.00;100282.75;5590397;31;34676;-69
2023/09/11 12:01:04;;;;;;;12.20;3.70;;;;;;;44.42;18.38;100290.41;5589354;31;34664;-69
2023/09/11 12:04:10;;;;;;;16.77;4.10;;;;;;;44.18;19.00;100283.56;5590240;31;34460;-69
2023/09/11 12:07:13;;;;;;;12.05;3.60;;;;;;;41.76;21.10;100271.03;5590362;31;34010;-69
2023/09/11 12:10:17;;;;;;;9.40;4.03;;;;;;;44.78;19.17;100273.66;5590372;31;34591;-68
2023/09/11 12:13:25;;;;;;;11.77;3.80;;;;;;;43.00;19.72;100265.84;5590038;31;33980;-68
2023/09/11 12:16:48;;;;;;;18.05;4.30;;;;;;;43.72;19.51;100268.63;5589810;31;33941;-69
2023/09/11 12:20:08;;;;;;;17.35;4.53;;;;;;;41.26;21.50;100263.97;5590661;31;33784;-69
2023/09/11 12:23:12;;;;;;;15.50;4.12;;;;;;;43.15;20.77;100259.19;5590133;31;34042;-68
2023/09/11 12:26:15;;;;;;;16.95;3.80;;;;;;;45.54;18.63;100262.69;5589988;31;34480;-69
2023/09/11 12:29:19;;;;;;;12.50;4.32;;;;;;;46.14;17.72;100262.34;5590171;31;33821;-69
2023/09/11 12:32:22;;;;;;;12.20;3.83;;;;;;;47.72;16.06;100264.03;5589631;31;34269;-68
2023/09/11 12:35:33;;;;;;;13.52;3.58;;;;;;;46.23;17.65;100256.31;5590069;31;34476;-69
2023/09/11 12:38:36;;;;;;;12.25;4.07;;;;;;;46.24;17.57;100247.47;5589871;31;34556;-68
2023/09/11 12:41:39;;;;;;;12.52;3.90;;;;;;;45.47;18.31;100247.88;5590484;31;33962;-69
2023/09/11 12:44:42;;;;;;;14.82;3.87;;;;;;;44.26;18.68;100245.25;5590025;31;33872;-70
2023/09/11 12:47:45;;;;;;;14.27;3.70;;;;;;;44.00;18.73;100245.59;5590027;31;33944;-69
2023/09/11 12:50:48;;;;;;;14.95;4.00;;;;;;;45.18;18.19;100236.78;5590022;31;33859;-69
2023/09/11 12:53:51;;;;;;;11.20;3.78;;;;;;;44.99;18.00;100229.59;5589652;31;34770;-68
2023/09/11 12:56:54;;;;;;;34.00;4.75;;;;;;;43.59;19.37;100231.06;5589924;31;33800;-69
2023/09/11 12:59:58;;;;;;;9.02;3.50;;;;;;;44.84;18.11;100227.22;5589578;31;33843;-69
2023/09/11 13:03:02;;;;;;;11.50;3.67;;;;;;;47.26;16.95;100228.06;5589798;31;34090;-69
2023/09/11 13:06:06;;;;;;;11.27;4.00;;;;;;;44.21;18.66;100230.81;5589710;31;34527;-68
2023/09/11 13:09:10;;;;;;;6.87;3.70;;;;;;;44.68;18.26;100212.88;5589546;31;33913;-69
2023/09/11 13:12:13;;;;;;;12.43;3.50;;;;;;;42.90;19.91;100206.75;5589742;31;33921;-69
2023/09/11 13:15:17;;;;;;;10.48;4.03;;;;;;;46.01;17.75;100207.16;5589325;31;34526;-69
2023/09/11 13:18:20;;;;;;;9.60;3.90;;;;;;;48.09;16.30;100206.03;5589738;31;33917;-69
2023/09/11 13:21:22;;;;;;;8.02;3.35;;;;;;;46.10;18.30;100204.66;5588818;31;33971;-69
2023/09/11 13:24:26;;;;;;;15.85;3.62;;;;;;;45.35;17.58;100199.50;5589367;31;33460;-68
2023/09/11 13:27:29;;;;;;;10.60;3.50;;;;;;;43.32;18.94;100209.03;5589526;31;33786;-69
2023/09/11 13:30:33;;;;;;;14.07;4.10;;;;;;;42.89;19.73;100196.81;5589893;31;34845;-69
2023/09/11 13:33:37;;;;;;;12.98;3.53;;;;;;;45.51;17.71;100184.25;5589449;31;34636;-69
2023/09/11 13:36:42;;;;;;;14.40;4.05;;;;;;;44.62;17.86;100190.06;5589662;31;33850;-69
2023/09/11 13:39:44;;;;;;;10.07;3.42;;;;;;;45.16;17.85;100182.38;5589525;31;33820;-69
2023/09/11 13:42:48;;;;;;;19.42;3.72;;;;;;;46.37;17.18;100182.44;5589873;31;34931;-68
2023/09/11 13:45:51;;;;;;;12.80;3.90;;;;;;;45.86;17.49;100175.63;5588625;31;33861;-68
2023/09/11 13:48:54;;;;;;;9.90;4.05;;;;;;;46.31;17.19;100184.09;5589532;31;34668;-67
2023/09/11 13:51:58;;;;;;;11.18;3.83;;;;;;;47.57;15.78;100183.91;5589162;31;33907;-68
2023/09/11 13:55:00;;;;;;;10.07;3.78;;;;;;;45.05;17.39;100168.41;5588965;31;34446;-69
2023/09/11 13:58:03;;;;;;;11.05;3.97;;;;;;;43.94;18.48;100163.31;5589217;31;34541;-68
2023/09/11 14:01:06;;;;;;;12.68;4.03;;;;;;;41.39;20.87;100156.78;5587826;31;34022;-69
2023/09/11 14:04:09;;;;;;;14.18;3.78;;;;;;;43.89;19.19;100160.91;5588931;31;34480;-68